Terminal Aerodrome Forecast
Issued by NWS

Home | Current Version | Previous Version | Text Only | Print | Product List | Glossary Off
Versions: 1 2 3 4 5 6 7 8 9 10 11 12 13 14 15 16 17 18 19 20

000
FTUS43 KABR 022000 AAA
TAFATY
TAF AMD
KATY 022018Z 0220/0318 21015KT P6SM VCSH SCT090
     FM030600 VRB04KT P6SM VCSH BKN090
     FM031500 01014KT P6SM BKN200=

USA.gov is the U.S. government's official web portal to all federal, state and local government web resources and services.